sensor_id;sensor_type;location;lat;lon;timestamp;pressure;altitude;pressure_sealevel;temperature;humidity
74913;BME280;63878;55.624;37.304;2024-01-15T00:01:46;96921.78;;;-12.35;80.14
74913;BME280;63878;55.624;37.304;2024-01-15T00:11:46;96904.84;;;-12.31;80.43
74913;BME280;63878;55.624;37.304;2024-01-15T00:21:47;96901.53;;;-12.13;80.93
74913;BME280;63878;55.624;37.304;2024-01-15T00:31:48;96885.13;;;-12.03;81.00
74913;BME280;63878;55.624;37.304;2024-01-15T00:41:48;96881.28;;;-11.92;81.03
74913;BME280;63878;55.624;37.304;2024-01-15T00:51:49;96862.50;;;-11.85;80.59
74913;BME280;63878;55.624;37.304;2024-01-15T01:01:50;96860.38;;;-11.75;80.54
74913;BME280;63878;55.624;37.304;2024-01-15T01:11:50;96853.50;;;-11.72;81.08
74913;BME280;63878;55.624;37.304;2024-01-15T01:21:50;96837.25;;;-11.66;81.61
74913;BME280;63878;55.624;37.304;2024-01-15T01:31:51;96829.50;;;-11.62;81.73
74913;BME280;63878;55.624;37.304;2024-01-15T01:41:51;96826.97;;;-11.62;82.60
74913;BME280;63878;55.624;37.304;2024-01-15T01:51:52;96808.97;;;-11.54;82.56
74913;BME280;63878;55.624;37.304;2024-01-15T02:01:57;96798.88;;;-11.36;82.79
74913;BME280;63878;55.624;37.304;2024-01-15T02:11:58;96793.75;;;-11.34;82.53
74913;BME280;63878;55.624;37.304;2024-01-15T02:21:59;96795.22;;;-11.47;82.99
74913;BME280;63878;55.624;37.304;2024-01-15T02:32:04;96791.88;;;-11.12;83.23
74913;BME280;63878;55.624;37.304;2024-01-15T02:42:05;96796.94;;;-11.12;83.11
74913;BME280;63878;55.624;37.304;2024-01-15T02:52:06;96787.41;;;-11.07;82.71
74913;BME280;63878;55.624;37.304;2024-01-15T03:02:06;96784.00;;;-11.06;82.87
74913;BME280;63878;55.624;37.304;2024-01-15T03:12:07;96770.25;;;-10.84;82.74
74913;BME280;63878;55.624;37.304;2024-01-15T03:22:08;96769.59;;;-10.70;82.77
74913;BME280;63878;55.624;37.304;2024-01-15T03:32:08;96755.16;;;-10.51;81.94
74913;BME280;63878;55.624;37.304;2024-01-15T03:42:09;96748.09;;;-10.45;82.02
74913;BME280;63878;55.624;37.304;2024-01-15T03:52:10;96740.81;;;-10.51;82.73
74913;BME280;63878;55.624;37.304;2024-01-15T04:02:13;96740.97;;;-10.54;84.22
74913;BME280;63878;55.624;37.304;2024-01-15T04:12:13;96745.69;;;-10.31;84.90
74913;BME280;63878;55.624;37.304;2024-01-15T04:22:14;96743.28;;;-10.17;84.96
74913;BME280;63878;55.624;37.304;2024-01-15T04:32:14;96746.41;;;-10.12;85.10
74913;BME280;63878;55.624;37.304;2024-01-15T04:42:15;96731.72;;;-10.05;85.51
74913;BME280;63878;55.624;37.304;2024-01-15T04:52:16;96725.91;;;-9.92;85.19
74913;BME280;63878;55.624;37.304;2024-01-15T05:02:16;96723.06;;;-9.86;85.37
74913;BME280;63878;55.624;37.304;2024-01-15T05:12:17;96735.31;;;-9.94;85.79
74913;BME280;63878;55.624;37.304;2024-01-15T05:22:18;96733.19;;;-9.86;85.95
74913;BME280;63878;55.624;37.304;2024-01-15T05:32:18;96736.78;;;-9.59;85.83
74913;BME280;63878;55.624;37.304;2024-01-15T05:42:19;96733.25;;;-9.56;85.61
74913;BME280;63878;55.624;37.304;2024-01-15T05:52:19;96732.34;;;-9.40;85.72
74913;BME280;63878;55.624;37.304;2024-01-15T06:02:20;96719.59;;;-9.38;85.69
74913;BME280;63878;55.624;37.304;2024-01-15T06:12:20;96732.41;;;-9.41;86.52
74913;BME280;63878;55.624;37.304;2024-01-15T06:22:21;96730.56;;;-9.24;86.38
74913;BME280;63878;55.624;37.304;2024-01-15T06:32:21;96736.72;;;-9.12;86.46
74913;BME280;63878;55.624;37.304;2024-01-15T06:42:22;96733.56;;;-9.02;86.14
74913;BME280;63878;55.624;37.304;2024-01-15T06:52:22;96733.72;;;-8.89;86.64
74913;BME280;63878;55.624;37.304;2024-01-15T07:02:23;96744.94;;;-8.79;86.37
74913;BME280;63878;55.624;37.304;2024-01-15T07:12:24;96743.59;;;-8.71;86.52
74913;BME280;63878;55.624;37.304;2024-01-15T07:22:24;96738.53;;;-8.71;86.00
74913;BME280;63878;55.624;37.304;2024-01-15T07:32:25;96739.66;;;-8.47;85.92
74913;BME280;63878;55.624;37.304;2024-01-15T07:42:25;96741.69;;;-8.38;86.19
74913;BME280;63878;55.624;37.304;2024-01-15T07:52:26;96732.25;;;-8.36;86.51
74913;BME280;63878;55.624;37.304;2024-01-15T08:02:27;96746.28;;;-8.30;86.55
74913;BME280;63878;55.624;37.304;2024-01-15T08:12:27;96739.94;;;-8.23;86.91
74913;BME280;63878;55.624;37.304;2024-01-15T08:22:28;96743.28;;;-7.95;86.95
74913;BME280;63878;55.624;37.304;2024-01-15T08:32:29;96738.03;;;-7.78;86.29
74913;BME280;63878;55.624;37.304;2024-01-15T08:42:29;96746.09;;;-7.71;86.32
74913;BME280;63878;55.624;37.304;2024-01-15T08:52:30;96750.91;;;-7.67;85.74
74913;BME280;63878;55.624;37.304;2024-01-15T09:02:30;96743.16;;;-7.51;85.90
74913;BME280;63878;55.624;37.304;2024-01-15T09:12:31;96746.22;;;-7.46;85.30
74913;BME280;63878;55.624;37.304;2024-01-15T09:22:31;96742.09;;;-7.35;85.86
74913;BME280;63878;55.624;37.304;2024-01-15T09:32:32;96749.16;;;-7.26;85.50
74913;BME280;63878;55.624;37.304;2024-01-15T09:42:33;96745.47;;;-7.08;85.11
74913;BME280;63878;55.624;37.304;2024-01-15T09:52:35;96747.53;;;-6.88;84.05
74913;BME280;63878;55.624;37.304;2024-01-15T10:02:36;96743.28;;;-6.87;83.17
74913;BME280;63878;55.624;37.304;2024-01-15T10:12:37;96743.88;;;-6.96;82.86
74913;BME280;63878;55.624;37.304;2024-01-15T10:22:42;96748.09;;;-6.83;82.69
74913;BME280;63878;55.624;37.304;2024-01-15T10:32:57;96754.38;;;-6.76;82.49
74913;BME280;63878;55.624;37.304;2024-01-15T10:42:58;96742.59;;;-6.64;82.35
74913;BME280;63878;55.624;37.304;2024-01-15T10:52:58;96738.44;;;-6.78;82.22
74913;BME280;63878;55.624;37.304;2024-01-15T11:03:01;96738.25;;;-6.62;82.21
74913;BME280;63878;55.624;37.304;2024-01-15T11:13:02;96729.81;;;-6.38;81.36
74913;BME280;63878;55.624;37.304;2024-01-15T11:23:02;96735.00;;;-6.52;81.17
74913;BME280;63878;55.624;37.304;2024-01-15T11:33:03;96738.88;;;-6.46;80.98
74913;BME280;63878;55.624;37.304;2024-01-15T11:43:05;96728.78;;;-6.48;80.72
74913;BME280;63878;55.624;37.304;2024-01-15T11:53:32;96736.22;;;-6.45;81.35
74913;BME280;63878;55.624;37.304;2024-01-15T12:03:34;96725.13;;;-6.44;80.63
74913;BME280;63878;55.624;37.304;2024-01-15T12:13:35;96725.22;;;-6.58;81.60
74913;BME280;63878;55.624;37.304;2024-01-15T12:23:36;96725.44;;;-6.36;81.37
74913;BME280;63878;55.624;37.304;2024-01-15T12:33:36;96722.47;;;-6.42;81.58
74913;BME280;63878;55.624;37.304;2024-01-15T12:43:38;96734.72;;;-6.22;80.66
74913;BME280;63878;55.624;37.304;2024-01-15T12:53:38;96730.53;;;-6.23;80.82
74913;BME280;63878;55.624;37.304;2024-01-15T13:03:38;96730.22;;;-6.44;81.39
74913;BME280;63878;55.624;37.304;2024-01-15T13:13:39;96742.03;;;-6.43;82.38
74913;BME280;63878;55.624;37.304;2024-01-15T13:23:40;96742.31;;;-6.35;82.40
74913;BME280;63878;55.624;37.304;2024-01-15T13:33:40;96752.31;;;-6.44;82.70
74913;BME280;63878;55.624;37.304;2024-01-15T13:43:41;96749.88;;;-6.46;83.10
74913;BME280;63878;55.624;37.304;2024-01-15T13:53:41;96762.16;;;-6.40;83.33
74913;BME280;63878;55.624;37.304;2024-01-15T14:03:42;96756.16;;;-6.39;83.78
74913;BME280;63878;55.624;37.304;2024-01-15T14:13:42;96747.72;;;-6.39;85.08
74913;BME280;63878;55.624;37.304;2024-01-15T14:23:43;96740.91;;;-6.51;86.81
74913;BME280;63878;55.624;37.304;2024-01-15T14:33:44;96725.63;;;-6.51;86.36
74913;BME280;63878;55.624;37.304;2024-01-15T14:43:45;96719.94;;;-6.55;86.65
74913;BME280;63878;55.624;37.304;2024-01-15T14:53:47;96712.50;;;-6.45;85.97
74913;BME280;63878;55.624;37.304;2024-01-15T15:03:48;96719.25;;;-6.44;85.86
74913;BME280;63878;55.624;37.304;2024-01-15T15:13:50;96720.34;;;-6.48;85.99
74913;BME280;63878;55.624;37.304;2024-01-15T15:23:51;96720.88;;;-6.43;86.19
74913;BME280;63878;55.624;37.304;2024-01-15T15:33:51;96730.81;;;-6.53;86.35
74913;BME280;63878;55.624;37.304;2024-01-15T15:43:52;96717.31;;;-6.41;86.24
74913;BME280;63878;55.624;37.304;2024-01-15T15:53:52;96717.63;;;-6.33;85.88
74913;BME280;63878;55.624;37.304;2024-01-15T16:03:53;96717.72;;;-6.47;85.97
74913;BME280;63878;55.624;37.304;2024-01-15T16:13:54;96725.53;;;-6.37;86.47
74913;BME280;63878;55.624;37.304;2024-01-15T16:23:56;96711.69;;;-6.33;86.51
74913;BME280;63878;55.624;37.304;2024-01-15T16:33:56;96705.47;;;-6.17;86.28
74913;BME280;63878;55.624;37.304;2024-01-15T16:43:56;96703.84;;;-6.18;86.28
74913;BME280;63878;55.624;37.304;2024-01-15T16:53:57;96696.63;;;-6.36;87.97
74913;BME280;63878;55.624;37.304;2024-01-15T17:03:58;96685.56;;;-6.35;87.44
74913;BME280;63878;55.624;37.304;2024-01-15T17:13:58;96682.28;;;-6.25;88.03
74913;BME280;63878;55.624;37.304;2024-01-15T17:23:59;96675.75;;;-6.41;89.00
74913;BME280;63878;55.624;37.304;2024-01-15T17:34:00;96682.50;;;-6.40;88.61
74913;BME280;63878;55.624;37.304;2024-01-15T17:44:01;96673.22;;;-6.16;88.49
74913;BME280;63878;55.624;37.304;2024-01-15T17:54:02;96680.44;;;-6.23;88.47
74913;BME280;63878;55.624;37.304;2024-01-15T18:04:02;96676.56;;;-6.28;88.28
74913;BME280;63878;55.624;37.304;2024-01-15T18:14:04;96667.44;;;-6.18;88.09
74913;BME280;63878;55.624;37.304;2024-01-15T18:24:04;96661.91;;;-6.12;88.76
74913;BME280;63878;55.624;37.304;2024-01-15T18:34:05;96643.16;;;-6.11;88.27
74913;BME280;63878;55.624;37.304;2024-01-15T18:44:06;96637.03;;;-6.09;87.82
74913;BME280;63878;55.624;37.304;2024-01-15T18:54:07;96631.81;;;-5.95;87.93
74913;BME280;63878;55.624;37.304;2024-01-15T19:04:08;96616.75;;;-5.74;87.59
74913;BME280;63878;55.624;37.304;2024-01-15T19:14:09;96609.94;;;-5.97;88.66
74913;BME280;63878;55.624;37.304;2024-01-15T19:24:10;96596.72;;;-6.02;88.59
74913;BME280;63878;55.624;37.304;2024-01-15T19:34:11;96590.19;;;-5.94;89.25
74913;BME280;63878;55.624;37.304;2024-01-15T19:44:11;96575.91;;;-5.96;89.26
74913;BME280;63878;55.624;37.304;2024-01-15T19:54:12;96579.03;;;-5.00;84.83
74913;BME280;63878;55.624;37.304;2024-01-15T20:04:13;96573.09;;;-5.57;85.60
74913;BME280;63878;55.624;37.304;2024-01-15T20:14:13;96572.56;;;-5.73;87.68
74913;BME280;63878;55.624;37.304;2024-01-15T20:24:14;96587.19;;;-5.88;88.26
74913;BME280;63878;55.624;37.304;2024-01-15T20:34:14;96575.81;;;-5.71;88.55
74913;BME280;63878;55.624;37.304;2024-01-15T20:44:15;96575.50;;;-5.67;88.51
74913;BME280;63878;55.624;37.304;2024-01-15T20:54:17;96572.88;;;-5.54;88.42
74913;BME280;63878;55.624;37.304;2024-01-15T21:04:17;96580.34;;;-5.40;87.84
74913;BME280;63878;55.624;37.304;2024-01-15T21:14:18;96573.25;;;-5.48;88.16
74913;BME280;63878;55.624;37.304;2024-01-15T21:24:18;96589.31;;;-5.47;88.10
74913;BME280;63878;55.624;37.304;2024-01-15T21:34:20;96578.72;;;-5.30;88.07
74913;BME280;63878;55.624;37.304;2024-01-15T21:44:20;96580.97;;;-5.26;87.88
74913;BME280;63878;55.624;37.304;2024-01-15T21:54:22;96582.84;;;-5.06;87.43
74913;BME280;63878;55.624;37.304;2024-01-15T22:04:22;96589.25;;;-5.11;86.52
74913;BME280;63878;55.624;37.304;2024-01-15T22:14:23;96578.38;;;-5.02;86.18
74913;BME280;63878;55.624;37.304;2024-01-15T22:24:24;96575.09;;;-5.04;85.16
74913;BME280;63878;55.624;37.304;2024-01-15T22:34:24;96562.56;;;-5.07;84.78
74913;BME280;63878;55.624;37.304;2024-01-15T22:44:25;96579.63;;;-4.97;83.97
74913;BME280;63878;55.624;37.304;2024-01-15T22:54:26;96568.78;;;-5.33;83.67
74913;BME280;63878;55.624;37.304;2024-01-15T23:04:27;96569.06;;;-5.14;83.69
74913;BME280;63878;55.624;37.304;2024-01-15T23:14:27;96580.75;;;-5.12;82.38
74913;BME280;63878;55.624;37.304;2024-01-15T23:24:28;96577.38;;;-5.12;81.26
74913;BME280;63878;55.624;37.304;2024-01-15T23:34:28;96574.31;;;-5.05;80.32
74913;BME280;63878;55.624;37.304;2024-01-15T23:44:29;96580.09;;;-4.92;79.80
74913;BME280;63878;55.624;37.304;2024-01-15T23:54:29;96593.13;;;-4.73;79.60
